createdAt,value
2022-10-22T00:02:22.031Z,12.21
2022-10-22T00:04:50.368Z,12.22
2022-10-22T00:07:18.623Z,12.19
2022-10-22T00:09:45.491Z,12.21
2022-10-22T00:12:12.678Z,12.21
2022-10-22T00:14:39.824Z,12.23
2022-10-22T00:17:10.502Z,12.24
2022-10-22T00:19:38.876Z,12.25
2022-10-22T00:22:05.943Z,12.27
2022-10-22T00:24:34.051Z,12.28
2022-10-22T00:27:00.961Z,12.27
2022-10-22T00:29:27.633Z,12.27
2022-10-22T00:34:22.798Z,12.29
2022-10-22T00:36:50.363Z,12.26
2022-10-22T00:39:20.015Z,12.25
2022-10-22T00:41:48.685Z,12.29
2022-10-22T00:44:52.639Z,12.31
2022-10-22T00:47:23.579Z,12.33
2022-10-22T00:49:51.924Z,12.34
2022-10-22T00:52:19.035Z,12.36
2022-10-22T00:54:49.386Z,12.37
2022-10-22T00:57:17.979Z,12.41
2022-10-22T00:59:44.660Z,12.38
2022-10-22T01:02:11.622Z,12.41
2022-10-22T01:04:38.275Z,12.39
2022-10-22T01:07:05.012Z,12.37
2022-10-22T01:09:40.644Z,12.38
2022-10-22T01:12:15.507Z,12.39
2022-10-22T01:14:51.203Z,12.38
2022-10-22T01:17:26.893Z,12.36
2022-10-22T01:20:06.203Z,12.33
2022-10-22T01:22:40.652Z,12.32
2022-10-22T01:25:35.779Z,12.34
2022-10-22T01:28:40.691Z,12.34
2022-10-22T01:31:15.016Z,12.31
2022-10-22T01:33:45.064Z,12.30
2022-10-22T01:36:20.362Z,12.25
2022-10-22T01:38:49.116Z,12.22
2022-10-22T01:41:15.803Z,12.22
2022-10-22T01:43:42.386Z,12.19
2022-10-22T01:46:12.582Z,12.21
2022-10-22T01:49:27.648Z,12.18
2022-10-22T01:52:26.476Z,12.19
2022-10-22T01:55:19.325Z,12.23
2022-10-22T01:58:10.713Z,12.26
2022-10-22T02:00:40.196Z,12.27
2022-10-22T02:03:32.874Z,12.28
2022-10-22T02:06:04.770Z,12.29
2022-10-22T02:08:33.805Z,12.26
2022-10-22T02:11:01.247Z,12.27
2022-10-22T02:13:36.082Z,12.27
2022-10-22T02:16:04.479Z,12.28
2022-10-22T02:18:36.422Z,12.27
2022-10-22T02:23:39.179Z,12.33
2022-10-22T02:26:24.418Z,12.32
2022-10-22T02:29:05.479Z,12.31
2022-10-22T02:31:37.687Z,12.32
2022-10-22T02:34:10.261Z,12.39
2022-10-22T02:36:39.400Z,12.38
2022-10-22T02:39:08.074Z,12.39
2022-10-22T02:41:35.382Z,12.39
2022-10-22T02:44:03.095Z,12.40
2022-10-22T02:46:29.868Z,12.39
2022-10-22T02:48:56.599Z,12.41
2022-10-22T02:51:23.343Z,12.39
2022-10-22T02:53:50.700Z,12.38
2022-10-22T02:56:17.780Z,12.35
2022-10-22T02:58:44.673Z,12.28
2022-10-22T03:01:15.255Z,12.29
2022-10-22T03:03:43.068Z,12.27
2022-10-22T03:06:09.740Z,12.25
2022-10-22T03:08:36.429Z,12.19
2022-10-22T03:11:03.152Z,12.16
2022-10-22T03:13:29.838Z,12.10
2022-10-22T03:15:56.492Z,12.08
2022-10-22T03:18:23.126Z,12.07
2022-10-22T03:20:49.929Z,12.01
2022-10-22T03:23:19.905Z,11.94
2022-10-22T03:25:50.188Z,11.90
2022-10-22T03:28:18.533Z,11.91
2022-10-22T03:30:45.233Z,11.89
2022-10-22T03:33:11.852Z,11.89
2022-10-22T03:35:44.962Z,11.86
2022-10-22T03:38:12.938Z,11.86
2022-10-22T03:40:41.652Z,11.81
2022-10-22T03:43:08.955Z,11.82
2022-10-22T03:45:35.597Z,11.84
2022-10-22T03:48:02.305Z,11.84
2022-10-22T03:50:29.953Z,11.90
2022-10-22T03:52:58.193Z,11.93
2022-10-22T03:55:25.236Z,11.96
2022-10-22T03:57:52.490Z,11.98
2022-10-22T04:00:23.041Z,12.01
2022-10-22T04:02:49.797Z,12.01
2022-10-22T04:05:16.439Z,12.03
2022-10-22T04:07:43.310Z,12.06
2022-10-22T04:10:10.346Z,12.04
2022-10-22T04:12:37.174Z,12.04
2022-10-22T04:15:04.886Z,12.04
2022-10-22T04:17:38.098Z,12.05
2022-10-22T04:20:05.682Z,12.05
2022-10-22T04:22:35.600Z,12.03
2022-10-22T04:25:03.007Z,12.03
2022-10-22T04:27:34.436Z,12.02
2022-10-22T04:30:02.265Z,12.02
2022-10-22T04:32:29.119Z,11.93
2022-10-22T04:34:55.729Z,11.82
2022-10-22T04:37:22.436Z,11.71
2022-10-22T04:39:49.128Z,11.61
2022-10-22T04:42:15.738Z,11.51
2022-10-22T04:44:42.426Z,11.43
2022-10-22T04:47:09.111Z,11.37
2022-10-22T04:49:36.328Z,11.31
2022-10-22T04:52:03.202Z,11.28
2022-10-22T04:54:32.261Z,11.27
2022-10-22T04:56:59.980Z,11.33
2022-10-22T04:59:26.841Z,11.37
2022-10-22T05:01:53.502Z,11.40
2022-10-22T05:04:20.836Z,11.42
2022-10-22T05:06:48.941Z,11.40
2022-10-22T05:09:19.033Z,11.41
2022-10-22T05:11:48.983Z,11.45
2022-10-22T05:14:18.603Z,11.44
2022-10-22T05:16:48.703Z,11.46
2022-10-22T05:19:19.754Z,11.46
2022-10-22T05:21:46.478Z,11.45
2022-10-22T05:24:13.337Z,11.44
2022-10-22T05:26:40.186Z,11.43
2022-10-22T05:29:09.357Z,11.40
2022-10-22T05:31:36.510Z,11.43
2022-10-22T05:34:03.309Z,11.42
2022-10-22T05:36:30.142Z,11.39
2022-10-22T05:38:57.618Z,11.29
2022-10-22T05:41:26.688Z,11.21
2022-10-22T05:44:01.249Z,11.12
2022-10-22T05:46:30.062Z,11.04
2022-10-22T05:48:59.264Z,10.96
2022-10-22T05:51:28.056Z,10.87
2022-10-22T05:53:57.971Z,10.84
2022-10-22T05:56:26.435Z,10.77
2022-10-22T05:58:53.726Z,10.73
2022-10-22T06:01:27.406Z,10.64
2022-10-22T06:03:56.240Z,10.62
2022-10-22T06:06:29.401Z,10.54
2022-10-22T06:08:59.573Z,10.46
2022-10-22T06:11:28.828Z,10.44
2022-10-22T06:13:58.343Z,10.43
2022-10-22T06:16:25.543Z,10.43
2022-10-22T06:18:52.194Z,10.50
2022-10-22T06:21:18.836Z,10.53
2022-10-22T06:23:45.732Z,10.53
2022-10-22T06:26:14.940Z,10.57
2022-10-22T06:28:42.461Z,10.61
2022-10-22T06:31:10.079Z,10.62
2022-10-22T06:33:42.259Z,10.65
2022-10-22T06:36:36.195Z,10.61
2022-10-22T06:39:04.319Z,10.62
2022-10-22T06:41:31.050Z,10.58
2022-10-22T06:43:58.068Z,10.49
2022-10-22T06:46:27.418Z,10.49
2022-10-22T06:48:56.602Z,10.43
2022-10-22T06:51:23.434Z,10.45
2022-10-22T06:53:50.565Z,10.45
2022-10-22T06:56:20.250Z,10.40
2022-10-22T06:58:48.959Z,10.36
2022-10-22T07:01:17.891Z,10.39
2022-10-22T07:03:44.733Z,10.43
2022-10-22T07:06:13.667Z,10.48
2022-10-22T07:08:41.737Z,10.48
2022-10-22T07:11:14.117Z,10.52
2022-10-22T07:13:41.617Z,10.53
2022-10-22T07:16:09.525Z,10.56
2022-10-22T07:18:37.619Z,10.51
2022-10-22T07:21:05.550Z,10.48
2022-10-22T07:23:32.471Z,10.44
2022-10-22T07:26:08.836Z,10.35
2022-10-22T07:28:46.170Z,10.34
2022-10-22T07:31:15.969Z,10.34
2022-10-22T07:33:43.560Z,10.31
2022-10-22T07:36:17.573Z,10.29
2022-10-22T07:38:46.092Z,10.28
2022-10-22T07:41:13.920Z,10.22
2022-10-22T07:43:41.626Z,10.25
2022-10-22T07:46:08.969Z,10.26
2022-10-22T07:48:36.734Z,10.33
2022-10-22T07:51:04.240Z,10.48
2022-10-22T07:56:37.947Z,10.79
2022-10-22T07:59:04.606Z,10.88
2022-10-22T08:01:31.393Z,10.92
2022-10-22T08:03:58.060Z,10.96
2022-10-22T08:06:25.321Z,11.00
2022-10-22T08:08:52.008Z,11.06
2022-10-22T08:11:18.674Z,11.16
2022-10-22T08:13:46.581Z,11.26
2022-10-22T08:16:14.689Z,11.35
2022-10-22T08:18:41.368Z,11.42
2022-10-22T08:21:15.819Z,11.45
2022-10-22T08:23:42.546Z,11.45
2022-10-22T08:26:42.225Z,11.46
2022-10-22T08:29:11.756Z,11.50
2022-10-22T08:32:02.829Z,11.52
2022-10-22T08:34:31.320Z,11.62
2022-10-22T08:36:57.981Z,11.63
2022-10-22T08:39:27.018Z,11.62
2022-10-22T08:42:21.138Z,11.65
2022-10-22T08:45:06.165Z,11.73
2022-10-22T08:48:07.711Z,11.82
2022-10-22T08:50:40.887Z,11.85
2022-10-22T08:53:14.129Z,11.89
2022-10-22T08:55:41.262Z,11.94
2022-10-22T08:58:26.471Z,12.00
2022-10-22T09:01:03.125Z,12.00
2022-10-22T09:03:56.924Z,12.02
2022-10-22T09:06:33.001Z,12.06
2022-10-22T09:09:02.557Z,12.08
2022-10-22T09:11:36.819Z,12.14
2022-10-22T09:14:05.861Z,12.22
2022-10-22T09:16:35.542Z,12.34
2022-10-22T09:19:20.612Z,12.43
2022-10-22T09:22:19.902Z,12.44
2022-10-22T09:24:53.575Z,12.44
2022-10-22T09:27:26.027Z,12.51
2022-10-22T09:29:52.799Z,12.52
2022-10-22T09:32:19.935Z,12.51
2022-10-22T09:37:34.399Z,12.48
2022-10-22T09:40:05.371Z,12.45
2022-10-22T09:42:33.740Z,12.47
2022-10-22T09:45:00.626Z,12.55
2022-10-22T09:48:01.955Z,12.63
2022-10-22T09:50:41.687Z,12.76
2022-10-22T09:53:22.022Z,12.84
2022-10-22T09:58:56.078Z,13.02
2022-10-22T10:01:28.776Z,13.17
2022-10-22T10:04:08.350Z,13.29
2022-10-22T10:06:40.340Z,13.32
2022-10-22T10:09:22.651Z,13.37
2022-10-22T10:12:05.933Z,13.44
2022-10-22T10:15:11.908Z,13.53
2022-10-22T10:17:44.991Z,13.59
2022-10-22T10:21:00.090Z,13.58
2022-10-22T10:23:29.827Z,13.69
2022-10-22T10:26:14.798Z,13.67
2022-10-22T10:29:29.909Z,13.68
2022-10-22T10:32:35.423Z,13.60
2022-10-22T10:35:29.435Z,13.46
2022-10-22T10:37:59.123Z,13.51
2022-10-22T10:40:37.931Z,13.48
2022-10-22T10:43:14.008Z,13.48
2022-10-22T10:46:01.252Z,13.58
2022-10-22T10:49:00.676Z,13.63
2022-10-22T10:51:40.007Z,13.55
2022-10-22T10:54:18.651Z,13.52
2022-10-22T10:56:50.891Z,13.53
2022-10-22T10:59:34.415Z,13.62
2022-10-22T11:02:32.096Z,13.68
2022-10-22T11:05:31.091Z,13.71
2022-10-22T11:08:00.703Z,13.65
2022-10-22T11:10:33.908Z,13.75
2022-10-22T11:13:08.677Z,13.85
2022-10-22T11:15:39.454Z,13.79
2022-10-22T11:18:20.691Z,13.69
2022-10-22T11:21:09.173Z,13.75
2022-10-22T11:24:03.375Z,13.77
2022-10-22T11:26:48.481Z,14.01
2022-10-22T11:29:23.671Z,14.16
2022-10-22T11:31:54.815Z,14.30
2022-10-22T11:34:43.561Z,14.42
2022-10-22T11:37:15.300Z,14.52
2022-10-22T11:39:49.443Z,14.56
2022-10-22T11:42:31.445Z,14.54
2022-10-22T11:44:59.103Z,14.52
2022-10-22T11:47:32.220Z,14.42
2022-10-22T11:50:30.960Z,14.32
2022-10-22T11:53:07.242Z,14.13
2022-10-22T11:55:48.520Z,14.09
2022-10-22T11:58:50.724Z,14.13
2022-10-22T12:01:39.726Z,14.16
2022-10-22T12:04:47.190Z,14.18
2022-10-22T12:07:53.803Z,14.27
2022-10-22T12:10:25.795Z,14.43
2022-10-22T12:13:11.938Z,14.59
2022-10-22T12:15:48.728Z,14.74
2022-10-22T12:18:16.298Z,14.87
2022-10-22T12:20:43.835Z,15.02
2022-10-22T12:23:16.641Z,15.05
2022-10-22T12:25:44.771Z,15.10
2022-10-22T12:28:12.837Z,15.11
2022-10-22T12:30:41.486Z,15.13
2022-10-22T12:33:18.564Z,15.12
2022-10-22T12:35:47.075Z,15.10
2022-10-22T12:38:18.519Z,15.04
2022-10-22T12:40:47.728Z,14.88
2022-10-22T12:43:29.010Z,14.83
2022-10-22T12:45:58.074Z,14.87
2022-10-22T12:48:29.475Z,14.81
2022-10-22T12:50:59.866Z,14.81
2022-10-22T12:53:39.384Z,14.98
2022-10-22T12:56:11.794Z,15.10
2022-10-22T12:58:45.503Z,15.22
2022-10-22T13:01:14.451Z,15.27
2022-10-22T13:03:47.476Z,15.16
2022-10-22T13:06:20.676Z,15.21
2022-10-22T13:08:56.382Z,15.13
2022-10-22T13:11:23.082Z,15.13
2022-10-22T13:13:49.743Z,15.20
2022-10-22T13:16:20.513Z,15.23
2022-10-22T13:18:48.547Z,15.22
2022-10-22T13:21:23.209Z,15.26
2022-10-22T13:23:55.095Z,15.26
2022-10-22T13:26:22.420Z,15.25
2022-10-22T13:28:55.717Z,15.17
2022-10-22T13:31:26.440Z,15.23
2022-10-22T13:34:01.430Z,15.19
2022-10-22T13:36:30.397Z,15.14
2022-10-22T13:38:57.611Z,15.28
2022-10-22T13:41:26.765Z,15.26
2022-10-22T13:43:54.899Z,15.25
2022-10-22T13:46:23.639Z,15.26
2022-10-22T13:48:52.770Z,15.22
2022-10-22T13:51:32.952Z,15.19
2022-10-22T13:54:00.785Z,15.18
2022-10-22T13:56:27.392Z,15.25
2022-10-22T13:58:54.028Z,15.22
2022-10-22T14:01:27.247Z,15.28
2022-10-22T14:03:58.039Z,15.17
2022-10-22T14:06:28.898Z,15.25
2022-10-22T14:08:59.064Z,15.36
2022-10-22T14:11:49.769Z,15.42
2022-10-22T14:14:17.482Z,15.45
2022-10-22T14:16:45.504Z,15.44
2022-10-22T14:19:17.861Z,15.41
2022-10-22T14:21:44.900Z,15.40
2022-10-22T14:24:13.231Z,15.31
2022-10-22T14:26:40.902Z,15.28
2022-10-22T14:29:10.211Z,15.15
2022-10-22T14:31:44.298Z,15.18
2022-10-22T14:34:13.521Z,15.14
2022-10-22T14:36:40.266Z,15.12
2022-10-22T14:39:06.945Z,15.13
2022-10-22T14:41:34.023Z,15.12
2022-10-22T14:44:01.701Z,15.14
2022-10-22T14:46:28.462Z,15.10
2022-10-22T14:48:55.084Z,15.14
2022-10-22T14:51:21.891Z,15.16
2022-10-22T14:53:49.324Z,15.16
2022-10-22T14:56:22.259Z,15.15
2022-10-22T14:58:49.932Z,15.19
2022-10-22T15:01:17.530Z,15.19
2022-10-22T15:03:44.331Z,15.12
2022-10-22T15:06:11.097Z,15.12
2022-10-22T15:08:37.922Z,14.97
2022-10-22T15:11:07.929Z,14.87
2022-10-22T15:13:35.254Z,14.82
2022-10-22T15:16:02.151Z,14.73
2022-10-22T15:18:28.914Z,14.75
2022-10-22T15:21:00.952Z,14.65
2022-10-22T15:23:28.459Z,14.61
2022-10-22T15:25:55.721Z,14.53
2022-10-22T15:28:23.598Z,14.49
2022-10-22T15:30:55.454Z,14.48
2022-10-22T15:33:22.615Z,14.44
2022-10-22T15:35:49.410Z,14.42
2022-10-22T15:38:16.806Z,14.36
2022-10-22T15:40:43.710Z,14.34
2022-10-22T15:43:10.812Z,14.29
2022-10-22T15:45:37.679Z,14.27
2022-10-22T15:48:05.292Z,14.24
2022-10-22T15:50:32.304Z,14.24
2022-10-22T15:52:59.067Z,14.24
2022-10-22T15:55:25.850Z,14.26
2022-10-22T15:57:57.174Z,14.27
2022-10-22T16:00:26.505Z,14.27
2022-10-22T16:02:54.167Z,14.26
2022-10-22T16:05:20.868Z,14.24
2022-10-22T16:07:47.613Z,14.24
2022-10-22T16:10:14.773Z,14.25
2022-10-22T16:12:42.684Z,14.25
2022-10-22T16:15:10.271Z,14.27
2022-10-22T16:17:36.925Z,14.27
2022-10-22T16:20:04.166Z,14.23
2022-10-22T16:22:31.206Z,14.20
2022-10-22T16:24:57.895Z,14.17
2022-10-22T16:27:24.502Z,14.12
2022-10-22T16:29:51.294Z,14.07
2022-10-22T16:32:18.514Z,13.96
2022-10-22T16:34:45.202Z,13.93
2022-10-22T16:37:11.798Z,13.89
2022-10-22T16:39:38.542Z,13.77
2022-10-22T16:42:05.276Z,13.73
2022-10-22T16:44:32.009Z,13.68
2022-10-22T16:46:58.637Z,13.63
2022-10-22T16:49:25.271Z,13.65
2022-10-22T16:51:51.953Z,13.64
2022-10-22T16:54:18.636Z,13.61
2022-10-22T16:56:45.261Z,13.55
2022-10-22T16:59:13.576Z,13.57
2022-10-22T17:01:41.399Z,13.51
2022-10-22T17:04:08.621Z,13.48
2022-10-22T17:06:35.546Z,13.47
2022-10-22T17:09:02.235Z,13.43
2022-10-22T17:11:36.463Z,13.42
2022-10-22T17:14:05.253Z,13.41
2022-10-22T17:16:32.102Z,13.38
2022-10-22T17:18:58.747Z,13.38
2022-10-22T17:21:25.962Z,13.39
2022-10-22T17:23:57.443Z,13.38
2022-10-22T17:26:26.503Z,13.40
2022-10-22T17:28:53.274Z,13.40
2022-10-22T17:31:25.039Z,13.40
2022-10-22T17:33:53.831Z,13.40
2022-10-22T17:36:21.730Z,13.40
2022-10-22T17:38:50.654Z,13.36
2022-10-22T17:41:19.990Z,13.37
2022-10-22T17:43:47.728Z,13.37
2022-10-22T17:46:23.157Z,13.36
2022-10-22T17:48:52.013Z,13.37
2022-10-22T17:51:19.597Z,13.39
2022-10-22T17:53:48.019Z,13.38
2022-10-22T17:56:18.328Z,13.37
2022-10-22T17:58:45.464Z,13.36
2022-10-22T18:01:26.010Z,13.38
2022-10-22T18:03:54.383Z,13.37
2022-10-22T18:06:21.398Z,13.35
2022-10-22T18:08:48.215Z,13.32
2022-10-22T18:11:19.477Z,13.35
2022-10-22T18:13:57.173Z,13.31
2022-10-22T18:16:25.185Z,13.33
2022-10-22T18:18:54.556Z,13.34
2022-10-22T18:21:26.274Z,13.34
2022-10-22T18:24:01.931Z,13.31
2022-10-22T18:26:32.196Z,13.29
2022-10-22T18:28:59.817Z,13.28
2022-10-22T18:31:33.274Z,13.29
2022-10-22T18:33:59.877Z,13.29
2022-10-22T18:36:27.801Z,13.30
2022-10-22T18:39:00.517Z,13.30
2022-10-22T18:41:29.241Z,13.32
2022-10-22T18:44:02.119Z,13.32
2022-10-22T18:46:30.530Z,13.30
2022-10-22T18:48:58.804Z,13.26
2022-10-22T18:51:30.678Z,13.26
2022-10-22T18:54:05.106Z,13.27
2022-10-22T18:56:42.865Z,13.26
2022-10-22T18:59:22.094Z,13.29
2022-10-22T19:01:49.381Z,13.30
2022-10-22T19:04:16.027Z,13.31
2022-10-22T19:06:45.339Z,13.29
2022-10-22T19:09:13.764Z,13.29
2022-10-22T19:11:40.615Z,13.33
2022-10-22T19:14:07.300Z,13.33
2022-10-22T19:16:35.347Z,13.34
2022-10-22T19:19:05.145Z,13.34
2022-10-22T19:21:32.708Z,13.34
2022-10-22T19:24:18.609Z,13.32
2022-10-22T19:26:46.524Z,13.33
2022-10-22T19:29:15.922Z,13.34
2022-10-22T19:31:51.426Z,13.32
2022-10-22T19:34:19.203Z,13.32
2022-10-22T19:36:46.220Z,13.31
2022-10-22T19:39:16.333Z,13.31
2022-10-22T19:41:43.158Z,13.29
2022-10-22T19:44:10.296Z,13.30
2022-10-22T19:46:37.090Z,13.32
2022-10-22T19:49:04.182Z,13.29
2022-10-22T19:51:34.292Z,13.28
2022-10-22T19:54:07.207Z,13.27
2022-10-22T19:56:35.159Z,13.27
2022-10-22T19:59:04.233Z,13.25
2022-10-22T20:01:32.281Z,13.27
2022-10-22T20:04:02.350Z,13.27
2022-10-22T20:06:29.985Z,13.28
2022-10-22T20:08:57.342Z,13.27
2022-10-22T20:11:28.262Z,13.26
2022-10-22T20:13:56.845Z,13.29
2022-10-22T20:16:27.176Z,13.31
2022-10-22T20:18:54.275Z,13.31
2022-10-22T20:21:22.953Z,13.33
2022-10-22T20:23:54.306Z,13.33
2022-10-22T20:26:21.440Z,13.37
2022-10-22T20:28:48.126Z,13.38
2022-10-22T20:31:20.309Z,13.37
2022-10-22T20:33:49.193Z,13.38
2022-10-22T20:36:21.309Z,13.38
2022-10-22T20:38:48.362Z,13.37
2022-10-22T20:41:22.165Z,13.38
2022-10-22T20:43:50.507Z,13.40
2022-10-22T20:46:29.483Z,13.40
2022-10-22T20:49:00.669Z,13.41
2022-10-22T20:51:27.556Z,13.42
2022-10-22T20:53:54.169Z,13.41
2022-10-22T20:56:21.676Z,13.42
2022-10-22T20:58:50.416Z,13.44
2022-10-22T21:01:23.997Z,13.41
2022-10-22T21:03:52.721Z,13.42
2022-10-22T21:06:23.806Z,13.44
2022-10-22T21:08:53.203Z,13.43
2022-10-22T21:11:20.347Z,13.44
2022-10-22T21:13:47.263Z,13.43
2022-10-22T21:16:17.097Z,13.43
2022-10-22T21:18:44.974Z,13.43
2022-10-22T21:21:12.869Z,13.42
2022-10-22T21:23:40.082Z,13.40
2022-10-22T21:26:07.510Z,13.40
2022-10-22T21:28:37.867Z,13.38
2022-10-22T21:31:08.590Z,13.36
2022-10-22T21:33:36.974Z,13.33
2022-10-22T21:36:04.936Z,13.31
2022-10-22T21:38:32.807Z,13.28
2022-10-22T21:41:03.859Z,13.27
2022-10-22T21:43:30.512Z,13.24
2022-10-22T21:46:07.905Z,13.28
2022-10-22T21:48:36.179Z,13.26
2022-10-22T21:51:08.172Z,13.28
2022-10-22T21:53:35.475Z,13.28
2022-10-22T21:56:02.892Z,13.29
2022-10-22T21:58:29.500Z,13.27
2022-10-22T22:00:58.156Z,13.27
2022-10-22T22:03:25.161Z,13.21
2022-10-22T22:05:58.039Z,13.20
2022-10-22T22:08:25.058Z,13.19
2022-10-22T22:10:52.271Z,13.18
2022-10-22T22:13:19.830Z,13.17
2022-10-22T22:15:46.611Z,13.15
2022-10-22T22:18:13.320Z,13.15
2022-10-22T22:20:40.003Z,13.16
2022-10-22T22:23:06.683Z,13.18
2022-10-22T22:25:33.665Z,13.17
2022-10-22T22:28:00.523Z,13.17
2022-10-22T22:30:28.790Z,13.16
2022-10-22T22:32:56.513Z,13.14
2022-10-22T22:35:23.924Z,13.13
2022-10-22T22:37:50.928Z,13.14
2022-10-22T22:40:18.593Z,13.12
2022-10-22T22:42:45.230Z,13.12
2022-10-22T22:45:12.015Z,13.13
2022-10-22T22:47:38.722Z,13.14
2022-10-22T22:50:05.852Z,13.13
2022-10-22T22:52:32.565Z,13.11
2022-10-22T22:54:59.277Z,13.09
2022-10-22T22:57:26.449Z,13.12
2022-10-22T22:59:53.070Z,13.14
2022-10-22T23:02:19.722Z,13.13
2022-10-22T23:04:47.566Z,13.13
2022-10-22T23:07:14.229Z,13.11
2022-10-22T23:09:41.009Z,13.08
2022-10-22T23:12:07.682Z,13.09
2022-10-22T23:14:34.288Z,13.12
2022-10-22T23:17:00.892Z,13.14
2022-10-22T23:19:27.892Z,13.14
2022-10-22T23:21:55.750Z,13.13
2022-10-22T23:24:25.339Z,13.14
2022-10-22T23:26:53.544Z,13.13
2022-10-22T23:29:23.017Z,13.15
2022-10-22T23:31:51.014Z,13.14
2022-10-22T23:34:20.855Z,13.15
2022-10-22T23:36:49.069Z,13.16
2022-10-22T23:39:18.499Z,13.16
2022-10-22T23:41:45.844Z,13.18
2022-10-22T23:44:13.726Z,13.19
2022-10-22T23:46:41.729Z,13.17
2022-10-22T23:49:09.786Z,13.18
2022-10-22T23:51:36.853Z,13.18
2022-10-22T23:54:07.169Z,13.19
2022-10-22T23:56:36.638Z,13.20
2022-10-22T23:59:04.041Z,13.20
